sensor_id;sensor_type;location;lat;lon;timestamp;P1;P2;P0
49064;PMS5003;34876;51.464;-0.150;2022-12-29T00:01:01;0;0;
49064;PMS5003;34876;51.464;-0.150;2022-12-29T00:03:30;0;0;
49064;PMS5003;34876;51.464;-0.150;2022-12-29T00:05:59;0;0;
49064;PMS5003;34876;51.464;-0.150;2022-12-29T00:08:28;0;0;
49064;PMS5003;34876;51.464;-0.150;2022-12-29T00:10:57;0;0;
49064;PMS5003;34876;51.464;-0.150;2022-12-29T00:13:25;0;0;
49064;PMS5003;34876;51.464;-0.150;2022-12-29T00:15:54;0;0;
49064;PMS5003;34876;51.464;-0.150;2022-12-29T00:18:23;0;0;
49064;PMS5003;34876;51.464;-0.150;2022-12-29T00:20:54;0;0;
49064;PMS5003;34876;51.464;-0.150;2022-12-29T00:23:23;0;0;
49064;PMS5003;34876;51.464;-0.150;2022-12-29T00:25:52;0;0;
49064;PMS5003;34876;51.464;-0.150;2022-12-29T00:28:21;0;0;
49064;PMS5003;34876;51.464;-0.150;2022-12-29T00:30:50;0;0;
49064;PMS5003;34876;51.464;-0.150;2022-12-29T00:33:19;0;0;
49064;PMS5003;34876;51.464;-0.150;2022-12-29T00:35:52;0;0;
49064;PMS5003;34876;51.464;-0.150;2022-12-29T00:38:24;0;0;
49064;PMS5003;34876;51.464;-0.150;2022-12-29T00:40:54;2;1;
49064;PMS5003;34876;51.464;-0.150;2022-12-29T00:43:23;0;0;
49064;PMS5003;34876;51.464;-0.150;2022-12-29T00:45:52;1;1;
49064;PMS5003;34876;51.464;-0.150;2022-12-29T00:48:21;0;0;
49064;PMS5003;34876;51.464;-0.150;2022-12-29T00:50:50;1;0;
49064;PMS5003;34876;51.464;-0.150;2022-12-29T00:53:24;0;0;
49064;PMS5003;34876;51.464;-0.150;2022-12-29T00:55:53;0;0;
49064;PMS5003;34876;51.464;-0.150;2022-12-29T00:58:22;0;0;
49064;PMS5003;34876;51.464;-0.150;2022-12-29T01:03:27;2;2;
49064;PMS5003;34876;51.464;-0.150;2022-12-29T01:05:56;2;2;
49064;PMS5003;34876;51.464;-0.150;2022-12-29T01:08:24;2;2;
49064;PMS5003;34876;51.464;-0.150;2022-12-29T01:10:58;4;3;
49064;PMS5003;34876;51.464;-0.150;2022-12-29T01:13:27;2;2;
49064;PMS5003;34876;51.464;-0.150;2022-12-29T01:15:56;3;3;
49064;PMS5003;34876;51.464;-0.150;2022-12-29T01:18:26;5;5;
49064;PMS5003;34876;51.464;-0.150;2022-12-29T01:20:58;5;4;
49064;PMS5003;34876;51.464;-0.150;2022-12-29T01:23:28;3;3;
49064;PMS5003;34876;51.464;-0.150;2022-12-29T01:26:07;2;1;
49064;PMS5003;34876;51.464;-0.150;2022-12-29T01:28:37;2;2;
49064;PMS5003;34876;51.464;-0.150;2022-12-29T01:31:06;3;3;
49064;PMS5003;34876;51.464;-0.150;2022-12-29T01:33:35;3;3;
49064;PMS5003;34876;51.464;-0.150;2022-12-29T01:36:05;2;2;
49064;PMS5003;34876;51.464;-0.150;2022-12-29T01:38:36;2;2;
49064;PMS5003;34876;51.464;-0.150;2022-12-29T01:41:07;3;3;
49064;PMS5003;34876;51.464;-0.150;2022-12-29T01:43:38;3;3;
49064;PMS5003;34876;51.464;-0.150;2022-12-29T01:46:13;2;1;
49064;PMS5003;34876;51.464;-0.150;2022-12-29T01:48:50;3;3;
49064;PMS5003;34876;51.464;-0.150;2022-12-29T01:51:22;6;5;
49064;PMS5003;34876;51.464;-0.150;2022-12-29T01:53:53;3;2;
49064;PMS5003;34876;51.464;-0.150;2022-12-29T01:56:26;3;3;
49064;PMS5003;34876;51.464;-0.150;2022-12-29T01:58:55;1;1;
49064;PMS5003;34876;51.464;-0.150;2022-12-29T02:01:30;4;3;
49064;PMS5003;34876;51.464;-0.150;2022-12-29T02:03:59;2;2;
49064;PMS5003;34876;51.464;-0.150;2022-12-29T02:06:29;2;2;
49064;PMS5003;34876;51.464;-0.150;2022-12-29T02:09:02;1;1;
49064;PMS5003;34876;51.464;-0.150;2022-12-29T02:11:31;2;2;
49064;PMS5003;34876;51.464;-0.150;2022-12-29T02:14:00;3;2;
49064;PMS5003;34876;51.464;-0.150;2022-12-29T02:16:31;2;2;
49064;PMS5003;34876;51.464;-0.150;2022-12-29T02:19:18;1;1;
49064;PMS5003;34876;51.464;-0.150;2022-12-29T02:22:10;0;0;
49064;PMS5003;34876;51.464;-0.150;2022-12-29T02:25:24;2;2;
49064;PMS5003;34876;51.464;-0.150;2022-12-29T02:28:47;3;2;
49064;PMS5003;34876;51.464;-0.150;2022-12-29T02:31:49;6;3;
49064;PMS5003;34876;51.464;-0.150;2022-12-29T02:34:29;3;3;
49064;PMS5003;34876;51.464;-0.150;2022-12-29T02:37:10;2;1;
49064;PMS5003;34876;51.464;-0.150;2022-12-29T02:39:49;4;2;
49064;PMS5003;34876;51.464;-0.150;2022-12-29T02:42:24;2;2;
49064;PMS5003;34876;51.464;-0.150;2022-12-29T02:45:03;3;3;
49064;PMS5003;34876;51.464;-0.150;2022-12-29T02:47:37;2;2;
49064;PMS5003;34876;51.464;-0.150;2022-12-29T02:50:12;3;1;
49064;PMS5003;34876;51.464;-0.150;2022-12-29T02:52:46;2;2;
49064;PMS5003;34876;51.464;-0.150;2022-12-29T02:55:19;2;2;
49064;PMS5003;34876;51.464;-0.150;2022-12-29T02:57:48;2;2;
49064;PMS5003;34876;51.464;-0.150;2022-12-29T03:00:33;2;2;
49064;PMS5003;34876;51.464;-0.150;2022-12-29T03:03:11;2;2;
49064;PMS5003;34876;51.464;-0.150;2022-12-29T03:05:57;1;1;
49064;PMS5003;34876;51.464;-0.150;2022-12-29T03:08:40;2;2;
49064;PMS5003;34876;51.464;-0.150;2022-12-29T03:11:17;2;1;
49064;PMS5003;34876;51.464;-0.150;2022-12-29T03:13:49;3;3;
49064;PMS5003;34876;51.464;-0.150;2022-12-29T03:16:21;2;2;
49064;PMS5003;34876;51.464;-0.150;2022-12-29T03:18:56;3;3;
49064;PMS5003;34876;51.464;-0.150;2022-12-29T03:21:32;0;0;
49064;PMS5003;34876;51.464;-0.150;2022-12-29T03:24:05;4;4;
49064;PMS5003;34876;51.464;-0.150;2022-12-29T03:26:34;5;4;
49064;PMS5003;34876;51.464;-0.150;2022-12-29T03:29:04;2;2;
49064;PMS5003;34876;51.464;-0.150;2022-12-29T03:31:36;3;3;
49064;PMS5003;34876;51.464;-0.150;2022-12-29T03:34:06;3;3;
49064;PMS5003;34876;51.464;-0.150;2022-12-29T03:36:39;3;3;
49064;PMS5003;34876;51.464;-0.150;2022-12-29T03:39:14;1;1;
49064;PMS5003;34876;51.464;-0.150;2022-12-29T03:41:45;7;4;
49064;PMS5003;34876;51.464;-0.150;2022-12-29T03:44:15;4;2;
49064;PMS5003;34876;51.464;-0.150;2022-12-29T03:46:44;1;1;
49064;PMS5003;34876;51.464;-0.150;2022-12-29T03:49:13;2;2;
49064;PMS5003;34876;51.464;-0.150;2022-12-29T03:51:42;3;3;
49064;PMS5003;34876;51.464;-0.150;2022-12-29T03:54:11;3;3;
49064;PMS5003;34876;51.464;-0.150;2022-12-29T03:56:40;5;4;
49064;PMS5003;34876;51.464;-0.150;2022-12-29T03:59:09;5;2;
49064;PMS5003;34876;51.464;-0.150;2022-12-29T04:01:39;2;2;
49064;PMS5003;34876;51.464;-0.150;2022-12-29T04:04:09;2;1;
49064;PMS5003;34876;51.464;-0.150;2022-12-29T04:06:38;1;1;
49064;PMS5003;34876;51.464;-0.150;2022-12-29T04:09:09;5;5;
49064;PMS5003;34876;51.464;-0.150;2022-12-29T04:11:38;3;3;
49064;PMS5003;34876;51.464;-0.150;2022-12-29T04:14:07;2;1;
49064;PMS5003;34876;51.464;-0.150;2022-12-29T04:16:36;2;1;
49064;PMS5003;34876;51.464;-0.150;2022-12-29T04:19:05;3;2;
49064;PMS5003;34876;51.464;-0.150;2022-12-29T04:21:34;0;0;
49064;PMS5003;34876;51.464;-0.150;2022-12-29T04:24:04;1;1;
49064;PMS5003;34876;51.464;-0.150;2022-12-29T04:26:33;1;1;
49064;PMS5003;34876;51.464;-0.150;2022-12-29T04:29:02;1;1;
49064;PMS5003;34876;51.464;-0.150;2022-12-29T04:31:32;1;1;
49064;PMS5003;34876;51.464;-0.150;2022-12-29T04:34:00;1;1;
49064;PMS5003;34876;51.464;-0.150;2022-12-29T04:36:29;6;3;
49064;PMS5003;34876;51.464;-0.150;2022-12-29T04:38:59;2;2;
49064;PMS5003;34876;51.464;-0.150;2022-12-29T04:41:28;3;3;
49064;PMS5003;34876;51.464;-0.150;2022-12-29T04:43:58;2;2;
49064;PMS5003;34876;51.464;-0.150;2022-12-29T04:46:27;3;2;
49064;PMS5003;34876;51.464;-0.150;2022-12-29T04:48:56;3;2;
49064;PMS5003;34876;51.464;-0.150;2022-12-29T04:51:25;1;1;
49064;PMS5003;34876;51.464;-0.150;2022-12-29T04:53:54;3;3;
49064;PMS5003;34876;51.464;-0.150;2022-12-29T04:56:22;2;1;
49064;PMS5003;34876;51.464;-0.150;2022-12-29T04:58:51;2;2;
49064;PMS5003;34876;51.464;-0.150;2022-12-29T05:01:20;2;1;
49064;PMS5003;34876;51.464;-0.150;2022-12-29T05:03:49;2;2;
49064;PMS5003;34876;51.464;-0.150;2022-12-29T05:06:18;1;1;
49064;PMS5003;34876;51.464;-0.150;2022-12-29T05:08:48;2;1;
49064;PMS5003;34876;51.464;-0.150;2022-12-29T05:11:17;3;2;
49064;PMS5003;34876;51.464;-0.150;2022-12-29T05:13:46;3;2;
49064;PMS5003;34876;51.464;-0.150;2022-12-29T05:16:14;4;4;
49064;PMS5003;34876;51.464;-0.150;2022-12-29T05:18:43;4;4;
49064;PMS5003;34876;51.464;-0.150;2022-12-29T05:21:12;3;2;
49064;PMS5003;34876;51.464;-0.150;2022-12-29T05:23:42;4;4;
49064;PMS5003;34876;51.464;-0.150;2022-12-29T05:26:11;4;4;
49064;PMS5003;34876;51.464;-0.150;2022-12-29T05:28:40;5;4;
49064;PMS5003;34876;51.464;-0.150;2022-12-29T05:31:09;3;2;
49064;PMS5003;34876;51.464;-0.150;2022-12-29T05:33:38;4;4;
49064;PMS5003;34876;51.464;-0.150;2022-12-29T05:36:07;4;4;
49064;PMS5003;34876;51.464;-0.150;2022-12-29T05:38:37;3;1;
49064;PMS5003;34876;51.464;-0.150;2022-12-29T05:41:07;3;3;
49064;PMS5003;34876;51.464;-0.150;2022-12-29T05:43:36;2;2;
49064;PMS5003;34876;51.464;-0.150;2022-12-29T05:46:05;2;1;
49064;PMS5003;34876;51.464;-0.150;2022-12-29T05:48:34;3;2;
49064;PMS5003;34876;51.464;-0.150;2022-12-29T05:51:04;4;1;
49064;PMS5003;34876;51.464;-0.150;2022-12-29T05:53:33;5;2;
49064;PMS5003;34876;51.464;-0.150;2022-12-29T05:56:02;1;1;
49064;PMS5003;34876;51.464;-0.150;2022-12-29T05:58:31;3;3;
49064;PMS5003;34876;51.464;-0.150;2022-12-29T06:01:00;2;2;
49064;PMS5003;34876;51.464;-0.150;2022-12-29T06:03:29;1;1;
49064;PMS5003;34876;51.464;-0.150;2022-12-29T06:05:57;2;0;
49064;PMS5003;34876;51.464;-0.150;2022-12-29T06:08:26;3;2;
49064;PMS5003;34876;51.464;-0.150;2022-12-29T06:10:55;4;3;
49064;PMS5003;34876;51.464;-0.150;2022-12-29T06:13:24;3;3;
49064;PMS5003;34876;51.464;-0.150;2022-12-29T06:15:53;5;2;
49064;PMS5003;34876;51.464;-0.150;2022-12-29T06:18:22;3;1;
49064;PMS5003;34876;51.464;-0.150;2022-12-29T06:20:51;5;2;
49064;PMS5003;34876;51.464;-0.150;2022-12-29T06:23:20;1;1;
49064;PMS5003;34876;51.464;-0.150;2022-12-29T06:25:49;1;1;
49064;PMS5003;34876;51.464;-0.150;2022-12-29T06:28:18;3;2;
49064;PMS5003;34876;51.464;-0.150;2022-12-29T06:30:46;2;2;
49064;PMS5003;34876;51.464;-0.150;2022-12-29T06:33:16;2;1;
49064;PMS5003;34876;51.464;-0.150;2022-12-29T06:35:45;3;3;
49064;PMS5003;34876;51.464;-0.150;2022-12-29T06:38:14;6;3;
49064;PMS5003;34876;51.464;-0.150;2022-12-29T06:40:43;2;2;
49064;PMS5003;34876;51.464;-0.150;2022-12-29T06:43:12;2;2;
49064;PMS5003;34876;51.464;-0.150;2022-12-29T06:45:41;1;1;
49064;PMS5003;34876;51.464;-0.150;2022-12-29T06:48:10;4;4;
49064;PMS5003;34876;51.464;-0.150;2022-12-29T06:50:39;2;2;
49064;PMS5003;34876;51.464;-0.150;2022-12-29T06:53:09;4;3;
49064;PMS5003;34876;51.464;-0.150;2022-12-29T06:55:38;0;0;
49064;PMS5003;34876;51.464;-0.150;2022-12-29T06:58:07;2;2;
49064;PMS5003;34876;51.464;-0.150;2022-12-29T07:00:36;2;2;
49064;PMS5003;34876;51.464;-0.150;2022-12-29T07:03:05;3;2;
49064;PMS5003;34876;51.464;-0.150;2022-12-29T07:05:33;2;2;
49064;PMS5003;34876;51.464;-0.150;2022-12-29T07:08:02;3;3;
49064;PMS5003;34876;51.464;-0.150;2022-12-29T07:10:31;3;3;
49064;PMS5003;34876;51.464;-0.150;2022-12-29T07:13:00;2;2;
49064;PMS5003;34876;51.464;-0.150;2022-12-29T07:15:29;3;2;
49064;PMS5003;34876;51.464;-0.150;2022-12-29T07:17:58;4;2;
49064;PMS5003;34876;51.464;-0.150;2022-12-29T07:20:27;2;2;
49064;PMS5003;34876;51.464;-0.150;2022-12-29T07:22:55;4;4;
49064;PMS5003;34876;51.464;-0.150;2022-12-29T07:25:24;5;4;
49064;PMS5003;34876;51.464;-0.150;2022-12-29T07:27:54;5;5;
49064;PMS5003;34876;51.464;-0.150;2022-12-29T07:30:22;6;6;
49064;PMS5003;34876;51.464;-0.150;2022-12-29T07:32:52;5;5;
49064;PMS5003;34876;51.464;-0.150;2022-12-29T07:35:20;9;7;
49064;PMS5003;34876;51.464;-0.150;2022-12-29T07:37:49;8;7;
49064;PMS5003;34876;51.464;-0.150;2022-12-29T07:40:19;9;9;
49064;PMS5003;34876;51.464;-0.150;2022-12-29T07:42:48;9;9;
49064;PMS5003;34876;51.464;-0.150;2022-12-29T07:45:18;9;9;
49064;PMS5003;34876;51.464;-0.150;2022-12-29T07:47:47;8;8;
49064;PMS5003;34876;51.464;-0.150;2022-12-29T07:50:16;14;12;
49064;PMS5003;34876;51.464;-0.150;2022-12-29T07:52:45;13;12;
49064;PMS5003;34876;51.464;-0.150;2022-12-29T07:55:15;11;8;
49064;PMS5003;34876;51.464;-0.150;2022-12-29T07:57:44;12;10;
49064;PMS5003;34876;51.464;-0.150;2022-12-29T08:00:13;14;11;
49064;PMS5003;34876;51.464;-0.150;2022-12-29T08:02:44;15;15;
49064;PMS5003;34876;51.464;-0.150;2022-12-29T08:05:13;11;11;
49064;PMS5003;34876;51.464;-0.150;2022-12-29T08:07:42;19;15;
49064;PMS5003;34876;51.464;-0.150;2022-12-29T08:10:13;15;15;
49064;PMS5003;34876;51.464;-0.150;2022-12-29T08:12:42;19;16;
49064;PMS5003;34876;51.464;-0.150;2022-12-29T08:15:12;10;10;
49064;PMS5003;34876;51.464;-0.150;2022-12-29T08:17:42;21;19;
49064;PMS5003;34876;51.464;-0.150;2022-12-29T08:20:10;15;14;
49064;PMS5003;34876;51.464;-0.150;2022-12-29T08:22:40;20;18;
49064;PMS5003;34876;51.464;-0.150;2022-12-29T08:25:09;17;15;
49064;PMS5003;34876;51.464;-0.150;2022-12-29T08:27:38;20;17;
49064;PMS5003;34876;51.464;-0.150;2022-12-29T08:30:07;24;20;
49064;PMS5003;34876;51.464;-0.150;2022-12-29T08:32:37;21;19;
49064;PMS5003;34876;51.464;-0.150;2022-12-29T08:35:06;19;18;
49064;PMS5003;34876;51.464;-0.150;2022-12-29T08:37:35;27;25;
49064;PMS5003;34876;51.464;-0.150;2022-12-29T08:40:05;25;23;
49064;PMS5003;34876;51.464;-0.150;2022-12-29T08:42:35;26;22;
49064;PMS5003;34876;51.464;-0.150;2022-12-29T08:45:05;25;23;
49064;PMS5003;34876;51.464;-0.150;2022-12-29T08:47:36;22;22;
49064;PMS5003;34876;51.464;-0.150;2022-12-29T08:50:06;23;23;
49064;PMS5003;34876;51.464;-0.150;2022-12-29T08:52:36;27;23;
49064;PMS5003;34876;51.464;-0.150;2022-12-29T08:55:06;26;24;
49064;PMS5003;34876;51.464;-0.150;2022-12-29T08:57:35;26;22;
49064;PMS5003;34876;51.464;-0.150;2022-12-29T09:00:06;18;16;
49064;PMS5003;34876;51.464;-0.150;2022-12-29T09:02:35;20;18;
49064;PMS5003;34876;51.464;-0.150;2022-12-29T09:05:05;20;18;
49064;PMS5003;34876;51.464;-0.150;2022-12-29T09:07:35;24;23;
49064;PMS5003;34876;51.464;-0.150;2022-12-29T09:10:04;28;28;
49064;PMS5003;34876;51.464;-0.150;2022-12-29T09:12:33;20;16;
49064;PMS5003;34876;51.464;-0.150;2022-12-29T09:15:03;31;27;
49064;PMS5003;34876;51.464;-0.150;2022-12-29T09:17:33;27;25;
49064;PMS5003;34876;51.464;-0.150;2022-12-29T09:20:02;30;30;
49064;PMS5003;34876;51.464;-0.150;2022-12-29T09:22:33;29;29;
49064;PMS5003;34876;51.464;-0.150;2022-12-29T09:25:02;23;22;
49064;PMS5003;34876;51.464;-0.150;2022-12-29T09:27:32;32;31;
49064;PMS5003;34876;51.464;-0.150;2022-12-29T09:30:02;29;25;
49064;PMS5003;34876;51.464;-0.150;2022-12-29T09:32:32;18;18;
49064;PMS5003;34876;51.464;-0.150;2022-12-29T09:35:01;16;15;
49064;PMS5003;34876;51.464;-0.150;2022-12-29T09:37:32;30;28;
49064;PMS5003;34876;51.464;-0.150;2022-12-29T09:40:02;29;27;
49064;PMS5003;34876;51.464;-0.150;2022-12-29T09:42:32;28;28;
49064;PMS5003;34876;51.464;-0.150;2022-12-29T09:45:11;21;19;
49064;PMS5003;34876;51.464;-0.150;2022-12-29T09:47:45;33;30;
49064;PMS5003;34876;51.464;-0.150;2022-12-29T09:50:18;28;25;
49064;PMS5003;34876;51.464;-0.150;2022-12-29T09:52:55;36;31;
49064;PMS5003;34876;51.464;-0.150;2022-12-29T09:55:31;28;25;
49064;PMS5003;34876;51.464;-0.150;2022-12-29T09:58:06;27;23;
49064;PMS5003;34876;51.464;-0.150;2022-12-29T10:00:46;31;25;
49064;PMS5003;34876;51.464;-0.150;2022-12-29T10:03:19;31;29;
49064;PMS5003;34876;51.464;-0.150;2022-12-29T10:05:52;23;23;
49064;PMS5003;34876;51.464;-0.150;2022-12-29T10:08:39;23;23;
49064;PMS5003;34876;51.464;-0.150;2022-12-29T10:11:19;21;17;
49064;PMS5003;34876;51.464;-0.150;2022-12-29T10:14:04;30;27;
49064;PMS5003;34876;51.464;-0.150;2022-12-29T10:16:47;25;24;
49064;PMS5003;34876;51.464;-0.150;2022-12-29T10:19:28;23;21;
49064;PMS5003;34876;51.464;-0.150;2022-12-29T10:22:12;28;23;
49064;PMS5003;34876;51.464;-0.150;2022-12-29T10:24:52;30;24;
49064;PMS5003;34876;51.464;-0.150;2022-12-29T10:27:25;29;29;
49064;PMS5003;34876;51.464;-0.150;2022-12-29T10:29:54;21;19;
49064;PMS5003;34876;51.464;-0.150;2022-12-29T10:32:28;19;19;
49064;PMS5003;34876;51.464;-0.150;2022-12-29T10:35:05;28;25;
49064;PMS5003;34876;51.464;-0.150;2022-12-29T10:37:41;28;27;
49064;PMS5003;34876;51.464;-0.150;2022-12-29T10:40:18;25;24;
49064;PMS5003;34876;51.464;-0.150;2022-12-29T10:42:52;21;19;
49064;PMS5003;34876;51.464;-0.150;2022-12-29T10:45:24;26;24;
49064;PMS5003;34876;51.464;-0.150;2022-12-29T10:47:58;24;24;
49064;PMS5003;34876;51.464;-0.150;2022-12-29T10:50:32;23;21;
49064;PMS5003;34876;51.464;-0.150;2022-12-29T10:53:02;26;25;
49064;PMS5003;34876;51.464;-0.150;2022-12-29T10:55:34;25;24;
49064;PMS5003;34876;51.464;-0.150;2022-12-29T10:58:09;29;27;
49064;PMS5003;34876;51.464;-0.150;2022-12-29T11:00:41;29;24;
49064;PMS5003;34876;51.464;-0.150;2022-12-29T11:03:27;26;26;
49064;PMS5003;34876;51.464;-0.150;2022-12-29T11:06:18;28;27;
49064;PMS5003;34876;51.464;-0.150;2022-12-29T11:08:53;28;26;
49064;PMS5003;34876;51.464;-0.150;2022-12-29T11:11:26;30;28;
49064;PMS5003;34876;51.464;-0.150;2022-12-29T11:14:02;29;27;
49064;PMS5003;34876;51.464;-0.150;2022-12-29T11:16:39;29;26;
49064;PMS5003;34876;51.464;-0.150;2022-12-29T11:19:19;27;24;
49064;PMS5003;34876;51.464;-0.150;2022-12-29T11:21:50;18;16;
49064;PMS5003;34876;51.464;-0.150;2022-12-29T11:24:22;26;22;
49064;PMS5003;34876;51.464;-0.150;2022-12-29T11:26:53;30;27;
49064;PMS5003;34876;51.464;-0.150;2022-12-29T11:29:24;16;16;
49064;PMS5003;34876;51.464;-0.150;2022-12-29T11:31:56;24;24;
49064;PMS5003;34876;51.464;-0.150;2022-12-29T11:34:30;21;19;
49064;PMS5003;34876;51.464;-0.150;2022-12-29T11:37:02;33;31;
49064;PMS5003;34876;51.464;-0.150;2022-12-29T11:39:37;29;25;
49064;PMS5003;34876;51.464;-0.150;2022-12-29T11:42:12;25;19;
49064;PMS5003;34876;51.464;-0.150;2022-12-29T11:44:44;25;22;
49064;PMS5003;34876;51.464;-0.150;2022-12-29T11:47:20;22;20;
49064;PMS5003;34876;51.464;-0.150;2022-12-29T11:49:55;25;21;
49064;PMS5003;34876;51.464;-0.150;2022-12-29T11:52:41;21;17;
49064;PMS5003;34876;51.464;-0.150;2022-12-29T11:55:16;22;21;
49064;PMS5003;34876;51.464;-0.150;2022-12-29T11:57:49;30;28;
49064;PMS5003;34876;51.464;-0.150;2022-12-29T12:00:21;21;18;
49064;PMS5003;34876;51.464;-0.150;2022-12-29T12:02:53;24;22;
49064;PMS5003;34876;51.464;-0.150;2022-12-29T12:05:30;24;24;
49064;PMS5003;34876;51.464;-0.150;2022-12-29T12:08:09;25;24;
49064;PMS5003;34876;51.464;-0.150;2022-12-29T12:10:43;30;26;
49064;PMS5003;34876;51.464;-0.150;2022-12-29T12:13:17;22;22;
49064;PMS5003;34876;51.464;-0.150;2022-12-29T12:15:52;24;23;
49064;PMS5003;34876;51.464;-0.150;2022-12-29T12:18:30;25;22;
49064;PMS5003;34876;51.464;-0.150;2022-12-29T12:21:06;17;17;
49064;PMS5003;34876;51.464;-0.150;2022-12-29T12:23:54;28;27;
49064;PMS5003;34876;51.464;-0.150;2022-12-29T12:26:33;21;18;
49064;PMS5003;34876;51.464;-0.150;2022-12-29T12:29:10;23;23;
49064;PMS5003;34876;51.464;-0.150;2022-12-29T12:31:45;22;21;
49064;PMS5003;34876;51.464;-0.150;2022-12-29T12:34:18;26;23;
49064;PMS5003;34876;51.464;-0.150;2022-12-29T12:36:58;25;23;
49064;PMS5003;34876;51.464;-0.150;2022-12-29T12:39:42;24;20;
49064;PMS5003;34876;51.464;-0.150;2022-12-29T12:42:21;22;22;
49064;PMS5003;34876;51.464;-0.150;2022-12-29T12:44:59;23;20;
49064;PMS5003;34876;51.464;-0.150;2022-12-29T12:47:51;20;18;
49064;PMS5003;34876;51.464;-0.150;2022-12-29T12:50:32;21;19;
49064;PMS5003;34876;51.464;-0.150;2022-12-29T12:53:22;21;18;
49064;PMS5003;34876;51.464;-0.150;2022-12-29T12:56:06;18;17;
49064;PMS5003;34876;51.464;-0.150;2022-12-29T12:58:49;20;18;
49064;PMS5003;34876;51.464;-0.150;2022-12-29T13:01:27;19;19;
49064;PMS5003;34876;51.464;-0.150;2022-12-29T13:04:12;19;17;
49064;PMS5003;34876;51.464;-0.150;2022-12-29T13:07:03;19;18;
49064;PMS5003;34876;51.464;-0.150;2022-12-29T13:09:44;18;15;
49064;PMS5003;34876;51.464;-0.150;2022-12-29T13:12:28;18;17;
49064;PMS5003;34876;51.464;-0.150;2022-12-29T13:15:07;18;17;
49064;PMS5003;34876;51.464;-0.150;2022-12-29T13:17:49;20;18;
49064;PMS5003;34876;51.464;-0.150;2022-12-29T13:20:26;22;21;
49064;PMS5003;34876;51.464;-0.150;2022-12-29T13:23:02;20;17;
49064;PMS5003;34876;51.464;-0.150;2022-12-29T13:25:40;19;19;
49064;PMS5003;34876;51.464;-0.150;2022-12-29T13:28:16;19;16;
49064;PMS5003;34876;51.464;-0.150;2022-12-29T13:30:53;22;19;
49064;PMS5003;34876;51.464;-0.150;2022-12-29T13:33:32;19;16;
49064;PMS5003;34876;51.464;-0.150;2022-12-29T13:36:10;18;15;
49064;PMS5003;34876;51.464;-0.150;2022-12-29T13:38:48;18;18;
49064;PMS5003;34876;51.464;-0.150;2022-12-29T13:41:22;23;19;
49064;PMS5003;34876;51.464;-0.150;2022-12-29T13:43:56;20;16;
49064;PMS5003;34876;51.464;-0.150;2022-12-29T13:46:29;18;16;
49064;PMS5003;34876;51.464;-0.150;2022-12-29T13:49:04;22;19;
49064;PMS5003;34876;51.464;-0.150;2022-12-29T13:51:36;18;18;
49064;PMS5003;34876;51.464;-0.150;2022-12-29T13:54:14;17;17;
49064;PMS5003;34876;51.464;-0.150;2022-12-29T13:56:52;12;12;
49064;PMS5003;34876;51.464;-0.150;2022-12-29T13:59:32;14;14;
49064;PMS5003;34876;51.464;-0.150;2022-12-29T14:02:13;13;13;
49064;PMS5003;34876;51.464;-0.150;2022-12-29T14:04:56;11;11;
49064;PMS5003;34876;51.464;-0.150;2022-12-29T14:07:28;12;12;
49064;PMS5003;34876;51.464;-0.150;2022-12-29T14:10:04;19;18;
49064;PMS5003;34876;51.464;-0.150;2022-12-29T14:12:36;15;14;
49064;PMS5003;34876;51.464;-0.150;2022-12-29T14:15:25;13;12;
49064;PMS5003;34876;51.464;-0.150;2022-12-29T14:18:00;14;12;
49064;PMS5003;34876;51.464;-0.150;2022-12-29T14:20:33;12;11;
49064;PMS5003;34876;51.464;-0.150;2022-12-29T14:23:15;15;15;
49064;PMS5003;34876;51.464;-0.150;2022-12-29T14:25:57;16;16;
49064;PMS5003;34876;51.464;-0.150;2022-12-29T14:28:28;19;17;
49064;PMS5003;34876;51.464;-0.150;2022-12-29T14:30:59;12;12;
49064;PMS5003;34876;51.464;-0.150;2022-12-29T14:33:30;12;12;
49064;PMS5003;34876;51.464;-0.150;2022-12-29T14:36:21;14;10;
49064;PMS5003;34876;51.464;-0.150;2022-12-29T14:39:30;13;13;
49064;PMS5003;34876;51.464;-0.150;2022-12-29T14:42:04;9;8;
49064;PMS5003;34876;51.464;-0.150;2022-12-29T14:44:48;16;13;
49064;PMS5003;34876;51.464;-0.150;2022-12-29T14:47:19;15;14;
49064;PMS5003;34876;51.464;-0.150;2022-12-29T14:49:52;10;10;
49064;PMS5003;34876;51.464;-0.150;2022-12-29T14:52:22;13;12;
49064;PMS5003;34876;51.464;-0.150;2022-12-29T14:54:54;10;9;
49064;PMS5003;34876;51.464;-0.150;2022-12-29T14:57:30;11;11;
49064;PMS5003;34876;51.464;-0.150;2022-12-29T15:00:13;12;12;
49064;PMS5003;34876;51.464;-0.150;2022-12-29T15:02:48;12;12;
49064;PMS5003;34876;51.464;-0.150;2022-12-29T15:05:26;11;11;
49064;PMS5003;34876;51.464;-0.150;2022-12-29T15:08:00;12;11;
49064;PMS5003;34876;51.464;-0.150;2022-12-29T15:10:34;16;13;
49064;PMS5003;34876;51.464;-0.150;2022-12-29T15:13:15;12;10;
49064;PMS5003;34876;51.464;-0.150;2022-12-29T15:15:45;10;9;
49064;PMS5003;34876;51.464;-0.150;2022-12-29T15:18:14;9;8;
49064;PMS5003;34876;51.464;-0.150;2022-12-29T15:20:50;12;12;
49064;PMS5003;34876;51.464;-0.150;2022-12-29T15:23:22;8;8;
49064;PMS5003;34876;51.464;-0.150;2022-12-29T15:25:53;12;11;
49064;PMS5003;34876;51.464;-0.150;2022-12-29T15:28:23;8;7;
49064;PMS5003;34876;51.464;-0.150;2022-12-29T15:30:56;10;9;
49064;PMS5003;34876;51.464;-0.150;2022-12-29T15:33:30;9;9;
49064;PMS5003;34876;51.464;-0.150;2022-12-29T15:36:02;8;8;
49064;PMS5003;34876;51.464;-0.150;2022-12-29T15:38:38;11;9;
49064;PMS5003;34876;51.464;-0.150;2022-12-29T15:41:11;9;8;
49064;PMS5003;34876;51.464;-0.150;2022-12-29T15:43:53;6;6;
49064;PMS5003;34876;51.464;-0.150;2022-12-29T15:46:31;8;8;
49064;PMS5003;34876;51.464;-0.150;2022-12-29T15:49:04;7;7;
49064;PMS5003;34876;51.464;-0.150;2022-12-29T15:51:34;10;8;
49064;PMS5003;34876;51.464;-0.150;2022-12-29T15:54:05;6;6;
49064;PMS5003;34876;51.464;-0.150;2022-12-29T15:56:43;8;8;
49064;PMS5003;34876;51.464;-0.150;2022-12-29T15:59:22;8;8;
49064;PMS5003;34876;51.464;-0.150;2022-12-29T16:01:54;6;6;
49064;PMS5003;34876;51.464;-0.150;2022-12-29T16:04:25;6;6;
49064;PMS5003;34876;51.464;-0.150;2022-12-29T16:06:57;5;5;
49064;PMS5003;34876;51.464;-0.150;2022-12-29T16:09:30;8;8;
49064;PMS5003;34876;51.464;-0.150;2022-12-29T16:12:01;8;7;
49064;PMS5003;34876;51.464;-0.150;2022-12-29T16:14:38;9;8;
49064;PMS5003;34876;51.464;-0.150;2022-12-29T16:17:11;8;7;
49064;PMS5003;34876;51.464;-0.150;2022-12-29T16:19:46;10;7;
49064;PMS5003;34876;51.464;-0.150;2022-12-29T16:22:20;7;6;
49064;PMS5003;34876;51.464;-0.150;2022-12-29T16:24:57;7;7;
49064;PMS5003;34876;51.464;-0.150;2022-12-29T16:27:28;7;6;
49064;PMS5003;34876;51.464;-0.150;2022-12-29T16:30:04;6;6;
49064;PMS5003;34876;51.464;-0.150;2022-12-29T16:32:46;5;5;
49064;PMS5003;34876;51.464;-0.150;2022-12-29T16:35:17;7;5;
49064;PMS5003;34876;51.464;-0.150;2022-12-29T16:37:48;6;6;
49064;PMS5003;34876;51.464;-0.150;2022-12-29T16:40:37;5;5;
49064;PMS5003;34876;51.464;-0.150;2022-12-29T16:43:19;9;7;
49064;PMS5003;34876;51.464;-0.150;2022-12-29T16:47:02;8;6;
49064;PMS5003;34876;51.464;-0.150;2022-12-29T16:49:46;6;6;
49064;PMS5003;34876;51.464;-0.150;2022-12-29T16:52:19;9;7;
49064;PMS5003;34876;51.464;-0.150;2022-12-29T16:54:52;5;5;
49064;PMS5003;34876;51.464;-0.150;2022-12-29T16:57:24;9;6;
49064;PMS5003;34876;51.464;-0.150;2022-12-29T16:59:56;6;6;
49064;PMS5003;34876;51.464;-0.150;2022-12-29T17:02:29;3;3;